Time;durP1;ratioP1;P1;durP2;ratioP2;P2;SDS_P1;SDS_P2;PMS_P1;PMS_P2;Temp;Humidity;BMP_temperature;BMP_pressure;BME280_temperature;BME280_humidity;BME280_pressure;Samples;Min_cycle;Max_cycle;Signal;HPM_P1;HPM_P2
2022/12/20 00:00:00;;;;;;;3.08;1.60;;;12.00;99.90;;;;;;5032016;28;20032;-84
2022/12/20 00:02:26;;;;;;;1.85;1.40;;;12.00;99.90;;;;;;5031793;28;20030;-85
2022/12/20 00:04:52;;;;;;;3.08;1.40;;;11.90;99.90;;;;;;5033035;28;20026;-84
2022/12/20 00:07:17;;;;;;;2.88;1.48;;;11.90;99.90;;;;;;5035507;28;20053;-84
2022/12/20 00:09:43;;;;;;;3.33;1.67;;;11.90;99.90;;;;;;5035966;28;20397;-84
2022/12/20 00:12:09;;;;;;;4.00;1.45;;;11.80;99.90;;;;;;5036074;28;20018;-84
2022/12/20 00:14:34;;;;;;;1.95;1.50;;;11.80;99.90;;;;;;5036117;28;20030;-85
2022/12/20 00:17:01;;;;;;;3.45;1.77;;;11.80;99.90;;;;;;5018305;28;20742;-84
2022/12/20 00:19:26;;;;;;;2.17;1.33;;;11.80;99.90;;;;;;5018221;28;20029;-84
2022/12/20 00:21:52;;;;;;;1.58;1.33;;;11.80;99.90;;;;;;5035479;28;20164;-84
2022/12/20 00:24:18;;;;;;;3.83;1.70;;;11.70;99.90;;;;;;5035378;28;20379;-84
2022/12/20 00:26:43;;;;;;;5.43;1.70;;;11.70;99.90;;;;;;5035655;28;20422;-84
2022/12/20 00:29:09;;;;;;;5.00;2.10;;;11.80;99.90;;;;;;5035763;28;20079;-85
2022/12/20 00:31:34;;;;;;;2.03;1.60;;;11.70;99.90;;;;;;5035639;28;20029;-85
2022/12/20 00:34:00;;;;;;;2.35;1.33;;;11.70;99.90;;;;;;5035568;28;20117;-84
2022/12/20 00:36:28;;;;;;;2.45;1.60;;;11.60;99.90;;;;;;5017681;28;20041;-85
2022/12/20 00:38:56;;;;;;;2.53;1.27;;;11.60;99.90;;;;;;5035673;28;20045;-85
2022/12/20 00:41:27;;;;;;;3.80;1.52;;;11.50;99.90;;;;;;5035579;28;20636;-84
2022/12/20 00:43:53;;;;;;;3.70;1.50;;;11.60;99.90;;;;;;5035319;28;20437;-84
2022/12/20 00:46:22;;;;;;;2.30;1.40;;;11.60;99.90;;;;;;5035473;28;20032;-84
2022/12/20 00:48:48;;;;;;;1.90;1.30;;;11.60;99.90;;;;;;5035285;28;20095;-84
2022/12/20 00:51:16;;;;;;;2.67;1.63;;;11.70;99.90;;;;;;5035404;28;20028;-84
2022/12/20 00:53:42;;;;;;;2.83;1.38;;;11.70;99.90;;;;;;5034945;28;20401;-85
2022/12/20 00:56:08;;;;;;;2.63;1.48;;;11.70;99.90;;;;;;5035053;28;20037;-84
2022/12/20 00:58:36;;;;;;;3.60;1.50;;;11.60;99.90;;;;;;5035243;28;20125;-85
2022/12/20 01:01:02;;;;;;;2.70;1.38;;;11.60;99.90;;;;;;5035089;28;20056;-84
2022/12/20 01:03:28;;;;;;;1.75;1.20;;;11.60;99.90;;;;;;5035051;28;20064;-84
2022/12/20 01:05:57;;;;;;;2.47;1.35;;;11.60;99.90;;;;;;5034632;28;20030;-84
2022/12/20 01:08:24;;;;;;;3.60;1.30;;;11.60;99.90;;;;;;5034896;28;20018;-85
2022/12/20 01:11:05;;;;;;;1.90;1.23;;;11.60;99.90;;;;;;5017584;28;20021;-83
2022/12/20 01:13:33;;;;;;;3.00;1.40;;;11.60;99.90;;;;;;5035278;28;20025;-84
2022/12/20 01:16:18;;;;;;;3.35;1.33;;;11.60;99.90;;;;;;5034209;28;20393;-84
2022/12/20 01:18:44;;;;;;;2.60;1.50;;;11.70;99.90;;;;;;5034106;28;20042;-84
2022/12/20 01:21:12;;;;;;;1.83;1.48;;;11.70;99.90;;;;;;5034817;28;20048;-84
2022/12/20 01:23:39;;;;;;;1.90;1.42;;;11.80;99.90;;;;;;5034890;28;20400;-84
2022/12/20 01:26:08;;;;;;;2.58;1.55;;;11.80;99.90;;;;;;5034700;28;20029;-84
2022/12/20 01:28:35;;;;;;;2.60;1.48;;;11.80;99.90;;;;;;5034458;28;20071;-84
2022/12/20 01:31:00;;;;;;;3.97;1.58;;;11.70;99.90;;;;;;5034554;28;20382;-84
2022/12/20 01:33:26;;;;;;;4.88;1.48;;;11.80;99.90;;;;;;5033937;28;20026;-84
2022/12/20 01:36:00;;;;;;;2.95;1.45;;;11.70;99.90;;;;;;5016941;28;20037;-84
2022/12/20 01:38:27;;;;;;;2.33;1.30;;;11.80;99.90;;;;;;5034291;28;20037;-84
2022/12/20 01:40:54;;;;;;;1.90;1.20;;;12.10;99.90;;;;;;5034524;28;20486;-84
2022/12/20 01:43:21;;;;;;;3.45;1.35;;;11.90;99.90;;;;;;5034367;28;20557;-84
2022/12/20 01:45:46;;;;;;;2.60;1.50;;;11.90;99.90;;;;;;5034476;28;20025;-84
2022/12/20 01:48:17;;;;;;;3.35;1.30;;;11.90;99.90;;;;;;5034388;28;20024;-84
2022/12/20 01:50:44;;;;;;;3.58;1.48;;;11.90;99.90;;;;;;5034142;28;20025;-84
2022/12/20 01:53:10;;;;;;;2.22;1.33;;;11.90;99.90;;;;;;5033949;28;20034;-84
2022/12/20 01:55:36;;;;;;;3.08;1.35;;;12.00;99.90;;;;;;5034038;28;20397;-84
2022/12/20 01:58:05;;;;;;;2.42;1.52;;;12.10;99.90;;;;;;5033954;28;20029;-84
2022/12/20 02:00:31;;;;;;;1.23;1.10;;;12.10;99.90;;;;;;5034034;28;20021;-84
2022/12/20 02:03:05;;;;;;;2.42;1.25;;;12.10;99.90;;;;;;5033863;28;20025;-84
2022/12/20 02:05:38;;;;;;;3.03;1.38;;;12.10;99.90;;;;;;5033759;28;20501;-84
2022/12/20 02:08:05;;;;;;;4.00;1.50;;;12.10;99.90;;;;;;5033648;28;20665;-84
2022/12/20 02:11:14;;;;;;;1.98;1.50;;;12.00;99.90;;;;;;5016028;28;20048;-84
2022/12/20 02:13:59;;;;;;;2.42;1.52;;;12.10;99.90;;;;;;5024272;28;20030;-84
2022/12/20 02:16:28;;;;;;;2.42;1.20;;;12.10;99.90;;;;;;5033603;28;20049;-84
2022/12/20 02:19:26;;;;;;;2.92;1.60;;;12.10;99.90;;;;;;5033383;28;20060;-84
2022/12/20 02:22:08;;;;;;;3.17;1.60;;;12.10;99.90;;;;;;5033623;28;20494;-84
2022/12/20 02:24:52;;;;;;;2.40;1.15;;;12.00;99.90;;;;;;5033770;28;20501;-84
2022/12/20 02:27:30;;;;;;;2.35;1.23;;;12.00;99.90;;;;;;5033298;28;20026;-84
2022/12/20 02:30:08;;;;;;;3.63;1.20;;;11.90;99.90;;;;;;5033628;28;20033;-84
2022/12/20 02:32:49;;;;;;;3.70;1.40;;;11.80;99.90;;;;;;5029015;28;20028;-85
2022/12/20 02:35:21;;;;;;;2.88;1.92;;;11.80;99.90;;;;;;5013321;28;20410;-84
2022/12/20 02:37:49;;;;;;;2.03;1.27;;;11.80;99.90;;;;;;5013881;28;20493;-84
2022/12/20 02:40:22;;;;;;;2.03;1.10;;;11.80;99.90;;;;;;5013602;28;20088;-84
2022/12/20 02:42:52;;;;;;;1.88;0.93;;;12.00;99.90;;;;;;5013345;28;20105;-84
2022/12/20 02:45:21;;;;;;;2.05;1.13;;;12.00;99.90;;;;;;5013683;28;20022;-84
2022/12/20 02:47:55;;;;;;;3.42;1.20;;;11.90;99.90;;;;;;5013069;28;20034;-84
2022/12/20 02:50:25;;;;;;;1.80;0.93;;;11.80;99.90;;;;;;5012944;28;20072;-84
2022/12/20 02:52:52;;;;;;;1.67;1.10;;;11.90;99.90;;;;;;5021533;28;20037;-84
2022/12/20 02:55:23;;;;;;;1.45;0.90;;;11.90;99.90;;;;;;5032917;28;20038;-84
2022/12/20 02:58:05;;;;;;;2.20;1.15;;;11.90;99.90;;;;;;5032872;28;20021;-84
2022/12/20 03:00:35;;;;;;;1.88;1.02;;;12.10;99.90;;;;;;5014771;28;20128;-85
2022/12/20 03:05:47;;;;;;;2.85;1.08;;;12.20;99.90;;;;;;5032793;28;20517;-84
2022/12/20 03:08:13;;;;;;;2.88;1.02;;;12.20;99.90;;;;;;5033033;28;20017;-84
2022/12/20 03:10:38;;;;;;;2.45;1.30;;;12.30;99.90;;;;;;5032726;28;20084;-84
2022/12/20 03:13:04;;;;;;;3.38;1.10;;;12.20;99.90;;;;;;5014894;28;20026;-84
2022/12/20 03:15:30;;;;;;;3.10;1.00;;;12.20;99.90;;;;;;5032358;28;20044;-84
2022/12/20 03:17:55;;;;;;;2.63;1.00;;;12.30;99.90;;;;;;5032329;28;20505;-84
2022/12/20 03:20:21;;;;;;;1.45;0.80;;;12.20;99.90;;;;;;5032331;28;20034;-84
2022/12/20 03:22:46;;;;;;;1.90;1.05;;;12.50;99.90;;;;;;5032543;28;20022;-84
2022/12/20 03:25:13;;;;;;;3.85;1.05;;;12.50;99.90;;;;;;5032455;28;20535;-84
2022/12/20 03:27:38;;;;;;;3.05;0.98;;;12.30;99.90;;;;;;5032357;28;20032;-84
2022/12/20 03:30:05;;;;;;;2.50;1.08;;;12.20;99.90;;;;;;5014780;28;20029;-84
2022/12/20 03:32:31;;;;;;;3.70;0.98;;;12.30;99.90;;;;;;5032325;28;20025;-84
2022/12/20 03:34:56;;;;;;;2.40;0.95;;;12.40;99.90;;;;;;5032115;28;20040;-84
2022/12/20 03:37:22;;;;;;;3.53;1.20;;;12.30;99.90;;;;;;5032653;28;20151;-84
2022/12/20 03:39:48;;;;;;;2.05;1.02;;;12.40;99.90;;;;;;5031583;28;20406;-84
2022/12/20 03:42:13;;;;;;;3.08;0.98;;;12.30;99.90;;;;;;5032690;28;20052;-84
2022/12/20 03:44:39;;;;;;;1.98;1.00;;;12.40;99.90;;;;;;5031927;28;20037;-84
2022/12/20 03:47:05;;;;;;;2.10;1.17;;;12.40;99.90;;;;;;5032099;28;20026;-84
2022/12/20 03:49:30;;;;;;;1.77;0.90;;;12.30;99.90;;;;;;5032161;28;20104;-84
2022/12/20 03:51:56;;;;;;;1.92;1.02;;;12.30;99.90;;;;;;5032376;28;20022;-84
2022/12/20 03:54:22;;;;;;;2.15;0.85;;;12.30;99.90;;;;;;5032159;28;20064;-84
2022/12/20 03:56:47;;;;;;;2.20;1.00;;;12.30;99.90;;;;;;5032025;28;20490;-84
2022/12/20 03:59:13;;;;;;;2.42;1.10;;;12.20;99.90;;;;;;5031926;28;20051;-85
2022/12/20 04:01:39;;;;;;;11.15;1.13;;;12.20;99.90;;;;;;5031766;28;20025;-84
2022/12/20 04:04:05;;;;;;;2.20;1.15;;;12.20;99.90;;;;;;5032055;28;20026;-84
2022/12/20 04:06:30;;;;;;;3.58;1.25;;;12.20;99.90;;;;;;5032068;28;20026;-84
2022/12/20 04:08:56;;;;;;;1.65;1.00;;;12.20;99.90;;;;;;5031895;28;20081;-84
2022/12/20 04:11:22;;;;;;;2.30;1.00;;;12.30;99.90;;;;;;5032264;28;20402;-85
2022/12/20 04:13:48;;;;;;;2.45;1.25;;;12.20;99.90;;;;;;5031588;28;20024;-84
2022/12/20 04:16:16;;;;;;;3.22;1.25;;;12.30;99.90;;;;;;5031637;28;20042;-84
2022/12/20 04:18:41;;;;;;;3.38;2.25;;;12.40;99.90;;;;;;5031982;28;20505;-84
2022/12/20 04:21:09;;;;;;;2.20;1.05;;;12.40;99.90;;;;;;5031685;28;20033;-84
2022/12/20 04:23:36;;;;;;;2.47;0.90;;;12.40;99.90;;;;;;5031764;28;20133;-84
2022/12/20 04:26:03;;;;;;;1.52;1.02;;;12.40;99.90;;;;;;5031948;28;20394;-84
2022/12/20 04:28:29;;;;;;;1.67;0.98;;;12.40;99.90;;;;;;5031800;28;20397;-83
2022/12/20 04:30:55;;;;;;;1.80;0.93;;;12.40;99.90;;;;;;5031550;28;20481;-85
2022/12/20 04:33:21;;;;;;;2.03;0.80;;;12.50;99.90;;;;;;5031604;28;20037;-85
2022/12/20 04:35:47;;;;;;;3.75;1.00;;;12.60;99.90;;;;;;5031655;28;20037;-84
2022/12/20 04:38:13;;;;;;;0.73;0.73;;;12.60;99.90;;;;;;5031691;28;20032;-84
2022/12/20 04:40:39;;;;;;;1.95;1.20;;;12.60;99.90;;;;;;5031474;28;20044;-84
2022/12/20 04:43:05;;;;;;;2.97;1.00;;;12.60;99.90;;;;;;5031245;28;20038;-84
2022/12/20 04:45:31;;;;;;;3.05;0.98;;;12.50;99.90;;;;;;5031490;28;20030;-84
2022/12/20 04:47:56;;;;;;;3.08;0.93;;;12.60;99.90;;;;;;5031447;28;20514;-84
2022/12/20 04:50:22;;;;;;;2.35;1.05;;;12.70;99.90;;;;;;5031633;28;20029;-84
2022/12/20 04:55:39;;;;;;;1.65;0.88;;;12.70;99.90;;;;;;5035125;28;20135;-85
2022/12/20 04:58:06;;;;;;;1.88;0.90;;;12.70;99.90;;;;;;5034882;28;20022;-84
2022/12/20 05:00:32;;;;;;;2.85;1.20;;;12.60;99.90;;;;;;5034776;28;20128;-85
2022/12/20 05:02:57;;;;;;;4.07;1.15;;;12.60;99.90;;;;;;5035306;28;20522;-84
2022/12/20 05:05:26;;;;;;;3.42;0.90;;;12.80;99.90;;;;;;5035361;28;20026;-84
2022/12/20 05:07:53;;;;;;;2.55;1.10;;;13.00;99.90;;;;;;5034799;28;20501;-84
2022/12/20 05:10:19;;;;;;;2.75;1.20;;;12.80;99.90;;;;;;5035007;28;20098;-84
2022/12/20 05:12:45;;;;;;;1.38;1.05;;;12.70;99.90;;;;;;5034510;28;20037;-84
2022/12/20 05:15:11;;;;;;;3.08;1.10;;;12.60;99.90;;;;;;5035107;28;20088;-84
2022/12/20 05:17:37;;;;;;;5.47;1.15;;;12.60;99.90;;;;;;5034572;28;20050;-85
2022/12/20 05:20:04;;;;;;;2.50;1.13;;;12.60;99.90;;;;;;5034758;28;20022;-84
2022/12/20 05:28:15;;;;;;;1.33;0.93;;;12.70;99.90;;;;;;4993178;28;20073;-84
2022/12/20 05:30:40;;;;;;;4.07;1.10;;;12.70;99.90;;;;;;4992882;28;20030;-84
2022/12/20 05:33:06;;;;;;;3.58;0.95;;;12.80;99.90;;;;;;4992911;28;20037;-84
2022/12/20 05:35:31;;;;;;;2.97;0.95;;;12.70;99.90;;;;;;4992680;28;20042;-85
2022/12/20 05:37:57;;;;;;;2.28;1.13;;;12.80;99.90;;;;;;4992922;28;20030;-84
2022/12/20 05:40:23;;;;;;;1.85;1.10;;;12.80;99.90;;;;;;4992819;28;20454;-85
2022/12/20 05:42:48;;;;;;;1.90;1.08;;;12.80;99.90;;;;;;4993035;28;20022;-84
2022/12/20 05:45:14;;;;;;;2.25;0.98;;;12.80;99.90;;;;;;4992619;28;20041;-84
2022/12/20 05:47:40;;;;;;;2.75;1.20;;;12.90;99.90;;;;;;4992453;28;20454;-84
2022/12/20 05:50:06;;;;;;;2.33;1.13;;;13.00;99.90;;;;;;4992960;28;20435;-85
2022/12/20 05:52:32;;;;;;;2.88;1.38;;;13.00;99.90;;;;;;4992326;28;20042;-85
2022/12/20 05:54:57;;;;;;;4.22;1.13;;;13.00;99.90;;;;;;4992071;28;20030;-85
2022/12/20 05:57:23;;;;;;;2.90;1.10;;;13.10;99.90;;;;;;4992560;28;20038;-85
2022/12/20 05:59:48;;;;;;;2.85;1.20;;;13.10;99.90;;;;;;5018820;28;20049;-85
2022/12/20 06:02:14;;;;;;;4.40;1.73;;;13.20;99.90;;;;;;5033237;28;20103;-84
2022/12/20 06:04:40;;;;;;;3.08;1.30;;;13.10;99.90;;;;;;5033804;28;20100;-85
2022/12/20 06:07:05;;;;;;;4.38;1.13;;;13.20;99.90;;;;;;5033458;28;20494;-84
2022/12/20 06:09:31;;;;;;;4.78;1.25;;;13.20;99.90;;;;;;5033232;28;20045;-84
2022/12/20 06:11:58;;;;;;;2.80;1.48;;;13.30;99.90;;;;;;5033998;28;20398;-84
2022/12/20 06:14:23;;;;;;;5.15;1.52;;;13.30;99.90;;;;;;5033653;28;20030;-84
2022/12/20 06:16:49;;;;;;;2.80;1.13;;;13.30;99.90;;;;;;5033505;28;20068;-84
2022/12/20 06:19:15;;;;;;;3.38;1.10;;;13.20;99.90;;;;;;5033783;28;20030;-85
2022/12/20 06:21:41;;;;;;;5.50;1.52;;;13.30;99.90;;;;;;5016176;28;20646;-84
2022/12/20 06:24:07;;;;;;;4.00;1.25;;;13.40;99.90;;;;;;5033277;28;20401;-84
2022/12/20 06:26:36;;;;;;;4.15;1.35;;;13.40;99.90;;;;;;5033460;28;20051;-85
2022/12/20 06:29:05;;;;;;;5.93;1.23;;;13.50;99.90;;;;;;5033437;28;20108;-85
2022/12/20 06:31:34;;;;;;;3.00;1.90;;;13.80;99.90;;;;;;5033453;28;20017;-85
2022/12/20 06:34:00;;;;;;;2.67;1.40;;;13.70;99.90;;;;;;5033008;28;20492;-84
2022/12/20 06:36:26;;;;;;;4.32;1.00;;;13.70;99.90;;;;;;5033044;28;20037;-84
2022/12/20 06:38:51;;;;;;;2.50;1.38;;;13.80;99.90;;;;;;5033531;28;20032;-84
2022/12/20 06:41:17;;;;;;;4.65;1.05;;;13.80;99.90;;;;;;5032947;28;20025;-84
2022/12/20 06:43:43;;;;;;;4.40;1.27;;;13.90;99.90;;;;;;5032841;28;20040;-84
2022/12/20 06:46:09;;;;;;;7.82;1.17;;;13.90;99.90;;;;;;5033027;28;20025;-84
2022/12/20 06:48:34;;;;;;;2.17;0.95;;;14.00;99.90;;;;;;5032877;28;20083;-84
2022/12/20 06:51:00;;;;;;;2.47;1.00;;;14.10;99.90;;;;;;5032820;28;20109;-84
2022/12/20 06:53:27;;;;;;;3.45;1.20;;;14.00;99.90;;;;;;5031801;28;20367;-84
2022/12/20 06:55:53;;;;;;;2.10;1.00;;;14.00;99.90;;;;;;5032873;28;20497;-84
2022/12/20 06:58:19;;;;;;;1.05;0.90;;;13.90;99.90;;;;;;5032774;28;20025;-84
2022/12/20 07:00:45;;;;;;;2.22;1.10;;;13.90;99.90;;;;;;5032885;28;20025;-84
2022/12/20 07:03:10;;;;;;;1.85;1.00;;;13.90;99.90;;;;;;5033232;28;20026;-84
2022/12/20 07:05:36;;;;;;;2.20;0.80;;;13.70;99.90;;;;;;5032818;28;20026;-84
2022/12/20 07:08:03;;;;;;;4.18;1.38;;;13.90;99.90;;;;;;5032316;28;20056;-84
2022/12/20 07:10:30;;;;;;;2.50;1.10;;;13.80;99.90;;;;;;5032566;28;20025;-87
2022/12/20 07:12:56;;;;;;;2.25;1.20;;;13.90;99.90;;;;;;5032999;28;20057;-83
2022/12/20 07:15:21;;;;;;;3.92;1.45;;;13.90;99.90;;;;;;5032664;28;20067;-81
2022/12/20 07:17:48;;;;;;;3.05;1.15;;;13.80;99.90;;;;;;5032423;28;20045;-81
2022/12/20 07:20:13;;;;;;;2.92;1.00;;;13.80;99.90;;;;;;5032581;28;20025;-82
2022/12/20 07:22:39;;;;;;;2.80;0.90;;;13.80;99.90;;;;;;5032696;28;20343;-83
2022/12/20 07:25:05;;;;;;;2.63;1.15;;;13.90;99.90;;;;;;5032780;28;20033;-83
2022/12/20 07:27:30;;;;;;;1.77;0.90;;;13.90;99.90;;;;;;5014738;28;20036;-83
2022/12/20 07:29:56;;;;;;;2.22;1.10;;;13.80;99.90;;;;;;5032443;28;20022;-83
2022/12/20 07:32:22;;;;;;;1.80;1.00;;;13.80;99.90;;;;;;5032213;28;20036;-83
2022/12/20 07:34:47;;;;;;;2.42;1.20;;;13.80;99.90;;;;;;5032595;28;20057;-83
2022/12/20 07:37:13;;;;;;;2.53;0.90;;;14.10;99.90;;;;;;5031827;28;20037;-83
2022/12/20 07:39:38;;;;;;;3.72;1.10;;;14.10;99.90;;;;;;5032569;28;20478;-83
2022/12/20 07:42:04;;;;;;;2.28;1.00;;;13.90;99.90;;;;;;5032421;28;20548;-82
2022/12/20 07:44:30;;;;;;;1.80;1.10;;;13.90;99.90;;;;;;5032286;28;20398;-83
2022/12/20 07:46:55;;;;;;;3.53;1.15;;;13.80;99.90;;;;;;5032120;28;20028;-83
2022/12/20 07:49:21;;;;;;;1.67;1.20;;;13.80;99.90;;;;;;5032300;28;20374;-83
2022/12/20 07:51:51;;;;;;;4.40;1.42;;;13.90;99.90;;;;;;5032141;28;20050;-83
2022/12/20 07:54:21;;;;;;;0.85;0.70;;;13.80;99.90;;;;;;5031802;28;20036;-83
2022/12/20 07:56:50;;;;;;;3.33;1.30;;;13.90;99.90;;;;;;5031754;28;20042;-82
2022/12/20 07:59:20;;;;;;;2.63;1.20;;;13.90;99.90;;;;;;5032071;28;20052;-83
2022/12/20 08:01:47;;;;;;;5.32;1.30;;;13.90;99.90;;;;;;5031937;28;20409;-83
2022/12/20 08:04:20;;;;;;;3.50;1.35;;;13.90;99.90;;;;;;5032357;28;20025;-83
2022/12/20 08:06:47;;;;;;;2.97;1.15;;;14.00;99.90;;;;;;5031917;28;20029;-83
2022/12/20 08:09:14;;;;;;;4.30;1.27;;;13.90;99.90;;;;;;5031741;28;20057;-83
2022/12/20 08:11:43;;;;;;;2.03;0.80;;;13.90;99.90;;;;;;5032222;28;20030;-83
2022/12/20 08:14:09;;;;;;;2.45;1.05;;;13.90;99.90;;;;;;5031822;28;20116;-83
2022/12/20 08:16:35;;;;;;;2.88;1.00;;;14.00;99.90;;;;;;5013864;28;20498;-83
2022/12/20 08:19:00;;;;;;;1.58;0.73;;;14.10;99.90;;;;;;5031955;28;20109;-83
2022/12/20 08:21:26;;;;;;;3.80;1.10;;;14.10;99.90;;;;;;5031837;28;20033;-83
2022/12/20 08:23:52;;;;;;;2.25;1.27;;;14.10;99.90;;;;;;5031679;28;20100;-83
2022/12/20 08:26:17;;;;;;;2.90;1.48;;;14.10;99.90;;;;;;5033037;28;20401;-83
2022/12/20 08:28:43;;;;;;;3.15;1.30;;;14.00;99.90;;;;;;5035797;28;20470;-83
2022/12/20 08:31:11;;;;;;;3.45;1.42;;;14.00;99.90;;;;;;5035759;28;20489;-83
2022/12/20 08:33:37;;;;;;;2.85;1.02;;;14.00;99.90;;;;;;5035719;28;20021;-82
2022/12/20 08:36:08;;;;;;;3.60;1.27;;;14.10;99.90;;;;;;5035546;28;20030;-83
2022/12/20 08:38:34;;;;;;;2.42;0.95;;;13.90;99.90;;;;;;5035486;28;20026;-83
2022/12/20 08:41:13;;;;;;;2.88;1.20;;;14.00;99.90;;;;;;5035556;28;20039;-83
2022/12/20 08:43:40;;;;;;;2.35;1.05;;;14.00;99.90;;;;;;5035546;28;20398;-83
2022/12/20 08:46:08;;;;;;;3.35;1.17;;;14.00;99.90;;;;;;5035446;28;20022;-83
2022/12/20 08:48:34;;;;;;;1.50;0.88;;;14.00;99.90;;;;;;5035466;28;20504;-83
2022/12/20 08:51:02;;;;;;;2.95;1.40;;;14.10;99.90;;;;;;5035311;28;20032;-83
2022/12/20 08:53:28;;;;;;;2.03;1.00;;;14.00;99.90;;;;;;5034930;28;20561;-83
2022/12/20 08:56:01;;;;;;;2.80;1.90;;;14.10;99.90;;;;;;5035340;28;20087;-83
2022/12/20 08:58:27;;;;;;;2.83;1.40;;;14.10;99.90;;;;;;5034993;28;20367;-83
2022/12/20 09:00:53;;;;;;;1.77;0.82;;;14.10;99.90;;;;;;5017476;28;20087;-83
2022/12/20 09:03:18;;;;;;;2.55;0.93;;;14.10;99.90;;;;;;5034802;28;20048;-83
2022/12/20 09:05:47;;;;;;;4.43;1.25;;;14.10;99.90;;;;;;5035395;28;20044;-83
2022/12/20 09:08:14;;;;;;;2.47;0.88;;;14.10;99.90;;;;;;5035089;28;20049;-83
2022/12/20 09:10:40;;;;;;;3.05;1.15;;;14.20;99.90;;;;;;5034772;28;20029;-83
2022/12/20 09:13:05;;;;;;;3.75;1.27;;;14.30;99.90;;;;;;5034779;28;20486;-83
2022/12/20 09:15:34;;;;;;;3.40;1.10;;;14.30;99.90;;;;;;5017306;28;20495;-83
2022/12/20 09:17:59;;;;;;;2.00;0.85;;;14.40;99.90;;;;;;5034212;28;20049;-83
2022/12/20 09:20:26;;;;;;;2.03;0.90;;;14.50;99.90;;;;;;5034847;28;20040;-83
2022/12/20 09:22:52;;;;;;;2.90;0.90;;;14.60;99.90;;;;;;5034625;28;20529;-83
2022/12/20 09:25:17;;;;;;;2.42;0.98;;;14.60;99.90;;;;;;5034699;28;20029;-83
2022/12/20 09:27:44;;;;;;;2.80;1.10;;;14.60;99.90;;;;;;5034543;28;20105;-83
2022/12/20 09:30:10;;;;;;;3.05;1.08;;;14.50;99.90;;;;;;5034579;28;20034;-83
2022/12/20 09:32:36;;;;;;;2.83;1.10;;;14.50;99.90;;;;;;5016800;28;20428;-83
2022/12/20 09:35:02;;;;;;;3.70;1.33;;;14.40;99.90;;;;;;5034302;28;20029;-83
2022/12/20 09:37:31;;;;;;;2.60;0.90;;;14.30;99.90;;;;;;5033290;28;20041;-83
2022/12/20 09:39:57;;;;;;;2.42;1.35;;;14.40;99.90;;;;;;5034791;28;20036;-82
2022/12/20 09:42:28;;;;;;;2.03;1.10;;;14.40;99.90;;;;;;5034367;28;20025;-83
2022/12/20 09:45:06;;;;;;;1.83;1.20;;;14.40;99.90;;;;;;5034444;28;20108;-83
2022/12/20 09:47:34;;;;;;;2.55;1.30;;;14.40;99.90;;;;;;5033942;28;20021;-83
2022/12/20 09:50:01;;;;;;;2.50;1.02;;;14.50;99.90;;;;;;5034208;28;20414;-83
2022/12/20 09:52:41;;;;;;;3.17;1.17;;;14.60;99.90;;;;;;5034057;28;20029;-83
2022/12/20 09:55:36;;;;;;;1.85;1.10;;;14.60;99.90;;;;;;5034142;28;20030;-83
2022/12/20 09:58:22;;;;;;;2.75;1.20;;;14.60;99.90;;;;;;5034120;28;20025;-83
2022/12/20 10:00:49;;;;;;;2.08;1.05;;;14.60;99.90;;;;;;5033688;28;20025;-82
2022/12/20 10:03:30;;;;;;;2.28;1.10;;;14.60;99.90;;;;;;5034021;28;20405;-83
2022/12/20 10:06:05;;;;;;;2.30;1.20;;;14.50;99.90;;;;;;5033722;28;20033;-83
2022/12/20 10:08:43;;;;;;;1.42;0.73;;;14.50;99.90;;;;;;5034092;28;20056;-83
2022/12/20 10:11:21;;;;;;;3.47;1.40;;;14.50;99.90;;;;;;5034187;28;20075;-83
2022/12/20 10:14:02;;;;;;;2.40;1.20;;;14.60;99.90;;;;;;5033858;28;20033;-82
2022/12/20 10:16:34;;;;;;;2.30;1.35;;;14.60;99.90;;;;;;5033183;28;20057;-83
2022/12/20 10:19:34;;;;;;;3.20;1.02;;;14.60;99.90;;;;;;5033728;28;20017;-82
2022/12/20 10:22:13;;;;;;;1.05;0.60;;;14.50;99.90;;;;;;5033617;28;20025;-83
2022/12/20 10:24:43;;;;;;;2.65;1.13;;;14.60;99.90;;;;;;5033604;28;20108;-83
2022/12/20 10:27:14;;;;;;;1.55;0.73;;;14.60;99.90;;;;;;5033461;28;20033;-83
2022/12/20 10:29:40;;;;;;;2.72;1.30;;;14.50;99.90;;;;;;5033055;28;20053;-83
2022/12/20 10:32:13;;;;;;;2.42;1.17;;;14.60;99.90;;;;;;5033898;28;20482;-83
2022/12/20 10:34:59;;;;;;;3.30;0.90;;;14.60;99.90;;;;;;5033067;28;20045;-83
2022/12/20 10:37:25;;;;;;;3.15;0.80;;;14.60;99.90;;;;;;5033579;28;20401;-83
2022/12/20 10:39:52;;;;;;;1.80;1.00;;;14.60;99.90;;;;;;5033182;28;20040;-83
2022/12/20 10:42:39;;;;;;;4.60;1.23;;;14.70;99.90;;;;;;5033348;28;20474;-83
2022/12/20 10:45:17;;;;;;;4.43;0.98;;;14.60;99.90;;;;;;5032806;28;20052;-83
2022/12/20 10:47:45;;;;;;;1.63;0.82;;;14.70;99.90;;;;;;5033334;28;20072;-83
2022/12/20 10:50:20;;;;;;;3.47;1.20;;;14.70;99.90;;;;;;5032993;28;20471;-83
2022/12/20 10:53:18;;;;;;;3.13;1.20;;;14.80;99.90;;;;;;5032985;28;20060;-83
2022/12/20 10:55:44;;;;;;;2.55;1.08;;;14.90;99.90;;;;;;5033149;28;20034;-83
2022/12/20 10:58:29;;;;;;;2.45;1.05;;;15.10;99.90;;;;;;5032979;28;20494;-83
2022/12/20 11:01:03;;;;;;;3.75;1.20;;;15.40;99.90;;;;;;5032588;28;20018;-82
2022/12/20 11:03:29;;;;;;;4.70;1.35;;;15.30;99.90;;;;;;5032847;28;20109;-83
2022/12/20 11:06:02;;;;;;;3.83;1.27;;;15.10;99.90;;;;;;5032837;28;20033;-83
2022/12/20 11:08:31;;;;;;;3.75;1.30;;;15.20;99.90;;;;;;5032778;28;20105;-83
2022/12/20 11:11:15;;;;;;;1.48;1.10;;;15.10;99.90;;;;;;5032618;28;20544;-83
2022/12/20 11:13:42;;;;;;;1.60;1.20;;;15.10;99.90;;;;;;5032676;28;20033;-83
2022/12/20 11:16:36;;;;;;;2.95;1.20;;;15.00;99.90;;;;;;5032017;28;20041;-83
2022/12/20 11:19:26;;;;;;;3.17;1.63;;;15.10;99.90;;;;;;5032642;28;20025;-82
2022/12/20 11:22:21;;;;;;;2.92;1.20;;;15.00;99.90;;;;;;5032834;28;20082;-83
2022/12/20 11:25:35;;;;;;;4.22;1.40;;;15.00;99.90;;;;;;5032178;28;20608;-83
2022/12/20 11:28:12;;;;;;;2.10;1.48;;;14.90;99.90;;;;;;4932715;29;20031;-83
2022/12/20 11:31:19;;;;;;;4.03;1.80;;;14.90;99.90;;;;;;4933176;29;20035;-83
2022/12/20 11:34:06;;;;;;;4.00;1.95;;;14.90;99.90;;;;;;4932820;29;20039;-83
2022/12/20 11:36:34;;;;;;;3.22;2.10;;;14.90;99.90;;;;;;4932743;29;20632;-83
2022/12/20 11:39:23;;;;;;;3.50;1.90;;;14.80;99.90;;;;;;4933009;29;20035;-82
2022/12/20 11:42:09;;;;;;;3.28;1.33;;;14.80;99.90;;;;;;4895235;29;20120;-83
2022/12/20 11:45:17;;;;;;;1.77;1.33;;;14.80;99.90;;;;;;4894918;29;20564;-83
2022/12/20 11:47:55;;;;;;;4.30;1.75;;;14.80;99.90;;;;;;4894757;29;20051;-82
2022/12/20 11:50:54;;;;;;;4.68;1.45;;;14.80;99.90;;;;;;4895031;29;20029;-83
2022/12/20 11:53:44;;;;;;;2.03;1.10;;;14.80;99.90;;;;;;4894605;29;20059;-83
2022/12/20 11:56:26;;;;;;;1.15;0.82;;;14.90;99.90;;;;;;4894773;29;20040;-83
2022/12/20 11:59:02;;;;;;;4.70;2.63;;;14.90;99.90;;;;;;4928705;29;20035;-83
2022/12/20 12:01:39;;;;;;;4.10;2.00;;;14.90;99.90;;;;;;4951119;29;20031;-83
2022/12/20 12:04:14;;;;;;;3.03;1.70;;;14.90;99.90;;;;;;4951825;29;20062;-83
2022/12/20 12:06:45;;;;;;;2.90;1.50;;;14.90;99.90;;;;;;4952056;29;20083;-83
2022/12/20 12:09:30;;;;;;;3.38;1.50;;;14.90;99.90;;;;;;4951894;29;20505;-83
2022/12/20 12:12:31;;;;;;;4.85;1.70;;;14.80;99.90;;;;;;4951349;29;20156;-83
2022/12/20 12:15:20;;;;;;;2.83;1.88;;;14.90;99.90;;;;;;4894572;29;20076;-83
2022/12/20 12:17:59;;;;;;;2.90;1.48;;;14.90;99.90;;;;;;4896178;29;20100;-83
2022/12/20 12:20:47;;;;;;;3.38;1.35;;;14.80;99.90;;;;;;4932457;29;20099;-83
2022/12/20 12:23:21;;;;;;;3.45;1.30;;;14.90;99.90;;;;;;4932903;29;20039;-82
2022/12/20 12:25:47;;;;;;;3.78;1.48;;;14.90;99.90;;;;;;4931918;29;20032;-83
2022/12/20 12:28:13;;;;;;;4.60;1.00;;;14.70;99.90;;;;;;4916721;29;20382;-83
2022/12/20 12:30:47;;;;;;;3.40;1.45;;;14.80;99.90;;;;;;4932333;29;20040;-83
2022/12/20 12:33:22;;;;;;;4.53;1.33;;;14.80;99.90;;;;;;4932319;29;20519;-83
2022/12/20 12:36:35;;;;;;;4.20;1.25;;;14.80;99.90;;;;;;4932065;29;20028;-83
2022/12/20 12:39:19;;;;;;;2.40;1.13;;;14.80;99.90;;;;;;4875779;29;20045;-83
2022/12/20 12:42:21;;;;;;;5.00;1.60;;;14.80;99.90;;;;;;4875403;29;20041;-83
2022/12/20 12:44:54;;;;;;;2.63;1.30;;;14.80;99.90;;;;;;4876029;29;20062;-84
2022/12/20 12:47:28;;;;;;;3.60;1.10;;;14.90;99.90;;;;;;4875712;29;20048;-83
2022/12/20 12:49:55;;;;;;;3.55;1.30;;;14.80;99.90;;;;;;4875779;29;20503;-83
2022/12/20 12:52:44;;;;;;;2.83;1.27;;;14.70;99.90;;;;;;4932848;29;20102;-84
2022/12/20 12:55:35;;;;;;;5.10;1.77;;;14.70;99.90;;;;;;4931876;29;20062;-83
2022/12/20 12:58:21;;;;;;;2.85;1.60;;;14.70;99.90;;;;;;4932523;29;20059;-84
2022/12/20 13:00:52;;;;;;;3.40;1.48;;;14.70;99.90;;;;;;4922534;29;20517;-83
2022/12/20 13:03:42;;;;;;;4.15;1.50;;;14.80;99.90;;;;;;4932125;29;20126;-83
2022/12/20 13:06:37;;;;;;;4.28;1.48;;;14.80;99.90;;;;;;4932555;29;20027;-84
2022/12/20 13:09:02;;;;;;;4.20;1.40;;;14.80;99.90;;;;;;4875653;29;20033;-84
2022/12/20 13:11:32;;;;;;;5.25;1.60;;;14.80;99.90;;;;;;4875310;29;20581;-84
2022/12/20 13:14:16;;;;;;;2.85;1.20;;;14.80;99.90;;;;;;4878891;29;20033;-83
2022/12/20 13:16:46;;;;;;;3.15;1.38;;;14.80;99.90;;;;;;4934036;28;20043;-83